createdAt,value
2023-04-05T00:01:36.604Z,68.20
2023-04-05T00:04:12.468Z,63.60
2023-04-05T00:07:01.330Z,58.50
2023-04-05T00:09:36.475Z,61.70
2023-04-05T00:12:19.345Z,64.50
2023-04-05T00:14:56.483Z,61.60
2023-04-05T00:17:37.370Z,71.50
2023-04-05T00:20:24.630Z,67.60
2023-04-05T00:23:02.662Z,64.90
2023-04-05T00:25:39.933Z,66.20
2023-04-05T00:28:17.017Z,65.10
2023-04-05T00:31:04.687Z,63.40
2023-04-05T00:33:44.389Z,60.00
2023-04-05T00:36:25.543Z,71.20
2023-04-05T00:38:57.227Z,60.40
2023-04-05T00:41:36.754Z,80.50
2023-04-05T00:44:19.608Z,77.80
2023-04-05T00:46:52.930Z,91.80
2023-04-05T00:49:47.973Z,92.30
2023-04-05T00:52:41.554Z,93.20
2023-04-05T00:56:08.734Z,91.50
2023-04-05T00:58:46.323Z,90.60
2023-04-05T01:01:22.778Z,83.60
2023-04-05T01:04:06.728Z,68.40
2023-04-05T01:07:47.561Z,82.40
2023-04-05T01:10:43.661Z,83.70
2023-04-05T01:13:26.830Z,72.00
2023-04-05T01:16:24.768Z,83.20
2023-04-05T01:19:04.540Z,84.60
2023-04-05T01:22:47.678Z,82.60
2023-04-05T01:25:56.667Z,80.20
2023-04-05T01:28:59.807Z,72.70
2023-04-05T01:31:42.328Z,70.60
2023-04-05T01:34:33.983Z,77.90
2023-04-05T01:37:19.820Z,79.10
2023-04-05T01:40:06.150Z,72.20
2023-04-05T01:42:47.693Z,73.30
2023-04-05T01:45:26.579Z,79.80
2023-04-05T01:48:08.839Z,76.00
2023-04-05T01:50:50.204Z,95.70
2023-04-05T01:53:32.912Z,90.40
2023-04-05T01:56:14.181Z,87.00
2023-04-05T01:58:49.723Z,82.40
2023-04-05T02:01:29.369Z,92.30
2023-04-05T02:04:01.913Z,86.50
2023-04-05T02:06:42.394Z,91.80
2023-04-05T02:09:24.537Z,90.30
2023-04-05T02:12:03.696Z,86.40
2023-04-05T02:14:39.498Z,90.10
2023-04-05T02:17:29.282Z,99.30
2023-04-05T02:20:16.748Z,97.10
2023-04-05T02:22:47.539Z,94.60
2023-04-05T02:25:27.911Z,97.20
2023-04-05T02:28:02.038Z,82.70
2023-04-05T02:30:34.540Z,83.70
2023-04-05T02:33:15.363Z,79.50
2023-04-05T02:35:56.676Z,69.10
2023-04-05T02:38:37.281Z,67.80
2023-04-05T02:41:17.861Z,67.60
2023-04-05T02:44:00.642Z,69.90
2023-04-05T02:46:45.625Z,69.20
2023-04-05T02:49:24.974Z,69.50
2023-04-05T02:52:00.341Z,69.30
2023-04-05T02:54:33.529Z,74.90
2023-04-05T02:57:17.153Z,80.00
2023-04-05T02:59:58.657Z,76.50
2023-04-05T03:02:35.217Z,69.20
2023-04-05T03:05:13.670Z,75.70
2023-04-05T03:07:51.100Z,78.80
2023-04-05T03:10:35.753Z,69.60
2023-04-05T03:13:13.622Z,77.30
2023-04-05T03:15:55.580Z,79.20
2023-04-05T03:18:44.026Z,78.90
2023-04-05T03:21:18.506Z,93.70
2023-04-05T03:23:58.309Z,78.00
2023-04-05T03:26:36.241Z,72.90
2023-04-05T03:29:07.177Z,71.30
2023-04-05T03:31:47.983Z,64.10
2023-04-05T03:34:29.449Z,56.30
2023-04-05T03:37:04.310Z,59.50
2023-04-05T03:39:45.648Z,62.80
2023-04-05T03:42:18.556Z,63.70
2023-04-05T03:44:58.410Z,65.80
2023-04-05T03:47:30.988Z,68.90
2023-04-05T03:50:05.533Z,68.40
2023-04-05T03:53:12.391Z,69.00
2023-04-05T03:55:54.626Z,59.60
2023-04-05T03:58:48.241Z,69.10
2023-04-05T04:01:25.241Z,63.30
2023-04-05T04:04:05.480Z,71.50
2023-04-05T04:06:43.396Z,73.00
2023-04-05T04:09:22.395Z,72.30
2023-04-05T04:11:55.031Z,71.70
2023-04-05T04:14:28.969Z,72.20
2023-04-05T04:17:38.088Z,106.90
2023-04-05T04:20:26.257Z,98.60
2023-04-05T04:23:27.305Z,80.60
2023-04-05T04:26:29.402Z,81.90
2023-04-05T04:29:21.315Z,82.20
2023-04-05T04:32:55.417Z,78.70
2023-04-05T04:38:54.890Z,67.40
2023-04-05T04:44:47.122Z,73.80
2023-04-05T04:47:44.009Z,76.40
2023-04-05T04:50:35.216Z,70.80
2023-04-05T04:53:18.904Z,66.80
2023-04-05T04:55:55.933Z,78.20
2023-04-05T04:58:32.135Z,69.50
2023-04-05T05:01:13.276Z,80.30
2023-04-05T05:03:48.587Z,87.30
2023-04-05T05:06:23.799Z,82.20
2023-04-05T05:08:56.768Z,76.00
2023-04-05T05:11:29.498Z,79.10
2023-04-05T05:14:00.415Z,73.90
2023-04-05T05:16:36.245Z,80.90
2023-04-05T05:19:09.341Z,75.70
2023-04-05T05:21:52.001Z,86.90
2023-04-05T05:24:22.960Z,81.10
2023-04-05T05:29:39.822Z,115.00
2023-04-05T05:32:17.368Z,108.50
2023-04-05T05:34:52.894Z,168.90
2023-04-05T05:37:36.689Z,126.40
2023-04-05T05:42:44.243Z,149.10
2023-04-05T05:45:14.265Z,147.80
2023-04-05T05:47:54.849Z,172.80
2023-04-05T05:50:26.055Z,137.40
2023-04-05T05:53:03.468Z,121.50
2023-04-05T05:55:39.123Z,118.70
2023-04-05T05:58:09.602Z,96.30
2023-04-05T06:00:40.085Z,113.60
2023-04-05T06:03:15.654Z,155.50
2023-04-05T06:06:03.789Z,135.80
2023-04-05T06:08:33.695Z,133.00
2023-04-05T06:11:07.789Z,115.30
2023-04-05T06:13:44.465Z,123.20
2023-04-05T06:16:26.084Z,116.80
2023-04-05T06:19:04.768Z,128.80
2023-04-05T06:21:38.096Z,147.00
2023-04-05T06:24:19.676Z,144.20
2023-04-05T06:26:55.042Z,143.40
2023-04-05T06:29:26.636Z,136.90
2023-04-05T06:32:02.882Z,134.00
2023-04-05T06:34:46.830Z,131.60
2023-04-05T06:37:21.600Z,128.30
2023-04-05T06:39:55.898Z,131.90
2023-04-05T06:42:28.306Z,129.50
2023-04-05T06:45:05.658Z,138.20
2023-04-05T06:47:42.375Z,115.70
2023-04-05T06:50:20.504Z,107.10
2023-04-05T06:52:57.522Z,89.10
2023-04-05T06:55:30.098Z,88.40
2023-04-05T06:58:08.189Z,86.90
2023-04-05T07:00:59.368Z,84.40
2023-04-05T07:03:30.060Z,83.30
2023-04-05T07:06:13.385Z,81.60
2023-04-05T07:08:57.006Z,83.90
2023-04-05T07:11:28.453Z,90.80
2023-04-05T07:14:01.950Z,82.70
2023-04-05T07:16:32.312Z,91.80
2023-04-05T07:19:02.867Z,92.70
2023-04-05T07:21:35.394Z,96.10
2023-04-05T07:24:07.133Z,81.40
2023-04-05T07:26:37.887Z,80.10
2023-04-05T07:29:20.987Z,86.30
2023-04-05T07:31:53.825Z,85.60
2023-04-05T07:34:37.365Z,92.20
2023-04-05T07:37:10.323Z,80.90
2023-04-05T07:39:41.482Z,93.10
2023-04-05T07:42:14.690Z,98.70
2023-04-05T07:44:45.235Z,67.00
2023-04-05T07:47:15.839Z,60.20
2023-04-05T07:50:00.216Z,77.30
2023-04-05T07:52:33.382Z,46.30
2023-04-05T07:55:07.772Z,53.10
2023-04-05T07:57:44.462Z,42.70
2023-04-05T08:05:59.741Z,41.30
2023-04-05T08:11:05.813Z,34.80
2023-04-05T08:13:42.390Z,41.80
2023-04-05T08:16:13.445Z,35.50
2023-04-05T08:18:46.278Z,36.70
2023-04-05T08:21:22.658Z,40.20
2023-04-05T08:24:01.402Z,34.30
2023-04-05T08:26:59.028Z,28.70
2023-04-05T08:29:42.174Z,32.80
2023-04-05T08:32:15.511Z,36.90
2023-04-05T08:34:45.943Z,32.40
2023-04-05T08:37:24.817Z,31.10
2023-04-05T08:40:11.522Z,34.30
2023-04-05T08:43:40.483Z,31.70
2023-04-05T08:46:48.238Z,26.20
2023-04-05T08:49:26.019Z,29.60
2023-04-05T08:52:09.408Z,27.50
2023-04-05T08:54:40.970Z,26.10
2023-04-05T08:57:20.255Z,30.40
2023-04-05T09:03:08.256Z,30.00
2023-04-05T09:05:53.313Z,57.90
2023-04-05T09:08:34.506Z,27.60
2023-04-05T09:11:10.876Z,29.10
2023-04-05T09:13:41.965Z,35.40
2023-04-05T09:16:16.866Z,42.30
2023-04-05T09:18:51.249Z,44.40
2023-04-05T09:21:23.830Z,36.80
2023-04-05T09:23:58.972Z,27.50
2023-04-05T09:26:45.615Z,31.80
2023-04-05T09:29:32.869Z,25.80
2023-04-05T09:32:14.457Z,27.90
2023-04-05T09:35:03.903Z,25.10
2023-04-05T09:37:36.297Z,26.30
2023-04-05T09:40:10.922Z,27.20
2023-04-05T09:42:48.085Z,23.70
2023-04-05T09:45:21.567Z,25.90
2023-04-05T09:48:02.204Z,17.30
2023-04-05T09:50:40.706Z,16.40
2023-04-05T09:53:22.372Z,15.00
2023-04-05T09:55:56.292Z,12.00
2023-04-05T09:58:40.484Z,14.40
2023-04-05T10:01:17.299Z,15.20
2023-04-05T10:03:51.034Z,15.20
2023-04-05T10:06:21.414Z,12.00
2023-04-05T10:08:55.302Z,15.10
2023-04-05T10:11:25.964Z,17.00
2023-04-05T10:13:56.671Z,12.40
2023-04-05T10:16:32.248Z,12.90
2023-04-05T10:19:03.697Z,11.10
2023-04-05T10:21:41.975Z,15.20
2023-04-05T10:24:39.447Z,17.00
2023-04-05T10:27:33.316Z,13.90
2023-04-05T10:30:12.633Z,14.30
2023-04-05T10:33:07.363Z,14.20
2023-04-05T10:36:07.330Z,12.30
2023-04-05T10:39:04.622Z,15.00
2023-04-05T10:41:49.485Z,12.20
2023-04-05T10:44:31.990Z,11.70
2023-04-05T10:47:19.696Z,15.90
2023-04-05T10:49:59.996Z,13.60
2023-04-05T10:52:43.034Z,15.60
2023-04-05T10:55:17.874Z,15.60
2023-04-05T10:57:58.468Z,12.30
2023-04-05T11:00:35.448Z,13.20
2023-04-05T11:03:50.292Z,13.80
2023-04-05T11:06:35.813Z,10.60
2023-04-05T11:09:27.251Z,10.50
2023-04-05T11:12:16.442Z,10.60
2023-04-05T11:14:55.855Z,8.80
2023-04-05T11:17:39.324Z,10.10
2023-04-05T11:20:20.533Z,22.60
2023-04-05T11:23:09.050Z,14.80
2023-04-05T11:26:11.207Z,18.70
2023-04-05T11:28:47.229Z,10.60
2023-04-05T11:31:28.333Z,12.70
2023-04-05T11:34:11.648Z,27.10
2023-04-05T11:36:50.741Z,12.70
2023-04-05T11:39:33.060Z,15.30
2023-04-05T11:42:10.099Z,11.20
2023-04-05T11:45:04.935Z,10.10
2023-04-05T11:47:46.258Z,12.50
2023-04-05T11:50:31.703Z,9.20
2023-04-05T11:53:21.634Z,7.40
2023-04-05T11:56:19.193Z,9.40
2023-04-05T11:58:55.976Z,10.50
2023-04-05T12:01:34.736Z,9.20
2023-04-05T12:04:18.895Z,14.60
2023-04-05T12:07:18.321Z,12.60
2023-04-05T12:10:14.110Z,13.80
2023-04-05T12:12:48.051Z,12.60
2023-04-05T12:15:45.906Z,11.90
2023-04-05T12:18:31.991Z,9.60
2023-04-05T12:21:12.766Z,13.40
2023-04-05T12:23:52.529Z,11.30
2023-04-05T12:26:34.679Z,12.40
2023-04-05T12:29:14.475Z,16.30
2023-04-05T12:32:05.253Z,12.30
2023-04-05T12:34:58.371Z,12.40
2023-04-05T12:37:36.066Z,12.00
2023-04-05T12:40:16.212Z,12.40
2023-04-05T12:43:02.262Z,11.90
2023-04-05T12:45:44.673Z,13.50
2023-04-05T12:51:21.035Z,11.20
2023-04-05T12:53:57.851Z,10.70
2023-04-05T12:56:31.023Z,11.60
2023-04-05T12:59:04.690Z,12.50
2023-04-05T13:01:39.800Z,11.50
2023-04-05T13:04:16.696Z,13.10
2023-04-05T13:06:51.868Z,12.70
2023-04-05T13:09:33.127Z,14.30
2023-04-05T13:12:11.543Z,12.80
2023-04-05T13:15:00.430Z,10.70
2023-04-05T13:17:34.879Z,9.00
2023-04-05T13:20:11.839Z,11.30
2023-04-05T13:22:47.885Z,11.60
2023-04-05T13:25:22.579Z,7.20
2023-04-05T13:27:58.671Z,9.50
2023-04-05T13:30:37.398Z,9.90
2023-04-05T13:33:09.097Z,10.20
2023-04-05T13:35:39.592Z,12.00
2023-04-05T13:38:12.717Z,12.00
2023-04-05T13:40:46.054Z,11.90
2023-04-05T13:43:28.276Z,10.70
2023-04-05T13:45:58.573Z,13.80
2023-04-05T13:48:35.756Z,13.70
2023-04-05T13:51:16.279Z,10.80
2023-04-05T13:54:00.996Z,13.20
2023-04-05T13:56:52.093Z,13.40
2023-04-05T14:03:32.719Z,10.40
2023-04-05T14:09:22.799Z,8.60
2023-04-05T14:11:57.362Z,11.40
2023-04-05T14:14:35.771Z,11.00
2023-04-05T14:17:12.897Z,15.40
2023-04-05T14:19:49.378Z,12.00
2023-04-05T14:22:28.762Z,13.10
2023-04-05T14:25:02.679Z,10.80
2023-04-05T14:27:46.161Z,12.30
2023-04-05T14:30:20.402Z,12.70
2023-04-05T14:33:00.017Z,11.60
2023-04-05T14:35:55.517Z,13.70
2023-04-05T14:38:31.370Z,10.00
2023-04-05T14:41:07.975Z,14.60
2023-04-05T14:43:43.531Z,13.90
2023-04-05T14:46:22.088Z,12.90
2023-04-05T14:48:55.677Z,100.20
2023-04-05T14:51:28.813Z,16.60
2023-04-05T14:54:19.031Z,14.90
2023-04-05T14:57:02.596Z,12.90
2023-04-05T14:59:51.247Z,11.70
2023-04-05T15:03:11.350Z,14.00
2023-04-05T15:06:07.629Z,15.70
2023-04-05T15:08:55.280Z,16.00
2023-04-05T15:12:13.422Z,15.50
2023-04-05T15:14:54.544Z,15.40
2023-04-05T15:17:59.972Z,12.80
2023-04-05T15:20:48.105Z,13.70
2023-04-05T15:23:30.070Z,17.60
2023-04-05T15:26:22.616Z,15.30
2023-04-05T15:29:28.026Z,13.40
2023-04-05T15:32:15.518Z,14.60
2023-04-05T15:35:16.509Z,17.30
2023-04-05T15:37:51.921Z,13.70
2023-04-05T15:40:31.729Z,14.30
2023-04-05T15:43:11.805Z,13.60
2023-04-05T15:45:51.397Z,16.30
2023-04-05T15:48:40.033Z,11.40
2023-04-05T15:51:13.870Z,14.60
2023-04-05T15:54:52.562Z,14.00
2023-04-05T15:57:31.142Z,13.10
2023-04-05T16:00:17.119Z,12.40
2023-04-05T16:02:56.149Z,11.90
2023-04-05T16:05:35.493Z,10.90
2023-04-05T16:08:11.080Z,15.50
2023-04-05T16:10:53.630Z,15.70
2023-04-05T16:13:57.485Z,14.00
2023-04-05T16:16:41.964Z,16.40
2023-04-05T16:19:25.485Z,11.70
2023-04-05T16:22:00.836Z,17.40
2023-04-05T16:24:37.454Z,16.30
2023-04-05T16:27:16.835Z,18.30
2023-04-05T16:29:51.277Z,17.80
2023-04-05T16:32:23.595Z,16.00
2023-04-05T16:34:56.256Z,17.50
2023-04-05T16:37:27.848Z,21.20
2023-04-05T16:40:00.642Z,23.20
2023-04-05T16:42:38.254Z,24.80
2023-04-05T16:45:13.244Z,26.80
2023-04-05T16:47:44.273Z,44.30
2023-04-05T16:50:23.703Z,40.80
2023-04-05T16:53:03.734Z,34.60
2023-04-05T16:55:38.501Z,21.30
2023-04-05T16:58:09.259Z,26.70
2023-04-05T17:00:45.458Z,25.20
2023-04-05T17:03:22.984Z,22.30
2023-04-05T17:05:54.808Z,23.70
2023-04-05T17:08:32.790Z,26.90
2023-04-05T17:11:10.836Z,26.20
2023-04-05T17:13:50.861Z,22.40
2023-04-05T17:16:25.912Z,24.20
2023-04-05T17:19:02.714Z,32.20
2023-04-05T17:21:37.459Z,34.30
2023-04-05T17:24:12.134Z,27.30
2023-04-05T17:26:49.859Z,30.00
2023-04-05T17:29:27.165Z,30.80
2023-04-05T17:31:58.249Z,32.90
2023-04-05T17:34:34.175Z,32.20
2023-04-05T17:37:05.164Z,28.60
2023-04-05T17:39:45.378Z,28.40
2023-04-05T17:42:20.356Z,32.10
2023-04-05T17:47:31.630Z,26.70
2023-04-05T17:50:07.208Z,25.10
2023-04-05T17:52:48.868Z,34.90
2023-04-05T17:55:22.826Z,35.70
2023-04-05T17:57:55.885Z,34.50
2023-04-05T18:00:29.593Z,36.00
2023-04-05T18:03:13.166Z,38.20
2023-04-05T18:05:46.827Z,39.20
2023-04-05T18:08:17.670Z,44.10
2023-04-05T18:10:58.944Z,40.90
2023-04-05T18:13:40.319Z,51.80
2023-04-05T18:16:11.019Z,48.80
2023-04-05T18:18:46.865Z,51.60
2023-04-05T18:21:34.296Z,41.90
2023-04-05T18:24:12.520Z,43.40
2023-04-05T18:26:45.474Z,47.40
2023-04-05T18:29:17.886Z,57.30
2023-04-05T18:31:47.987Z,82.30
2023-04-05T18:36:59.961Z,93.30
2023-04-05T18:40:07.158Z,76.10
2023-04-05T18:42:40.795Z,69.80
2023-04-05T18:45:11.914Z,63.00
2023-04-05T18:47:54.020Z,46.90
2023-04-05T18:50:26.576Z,44.70
2023-04-05T18:53:09.813Z,40.50
2023-04-05T18:55:42.390Z,42.60
2023-04-05T18:58:12.728Z,44.30
2023-04-05T19:00:42.957Z,44.50
2023-04-05T19:03:16.867Z,50.60
2023-04-05T19:05:53.820Z,58.10
2023-04-05T19:08:47.125Z,59.50
2023-04-05T19:11:19.399Z,54.10
2023-04-05T19:13:52.891Z,60.40
2023-04-05T19:16:28.506Z,61.80
2023-04-05T19:18:58.091Z,53.40
2023-04-05T19:21:28.621Z,49.40
2023-04-05T19:23:58.112Z,57.30
2023-04-05T19:26:35.918Z,60.90
2023-04-05T19:29:08.630Z,50.40
2023-04-05T19:31:51.327Z,42.90
2023-04-05T19:34:21.957Z,50.30
2023-04-05T19:37:01.184Z,58.60
2023-04-05T19:40:20.577Z,58.10
2023-04-05T19:43:43.429Z,66.40
2023-04-05T19:46:17.158Z,70.30
2023-04-05T19:48:54.670Z,70.90
2023-04-05T19:51:33.172Z,66.80
2023-04-05T19:54:15.125Z,61.30
2023-04-05T19:56:48.594Z,63.20
2023-04-05T19:59:33.493Z,64.70
2023-04-05T20:02:34.731Z,57.60
2023-04-05T20:05:26.057Z,68.10
2023-04-05T20:07:56.648Z,61.80
2023-04-05T20:10:42.442Z,67.60
2023-04-05T20:13:12.547Z,64.90
2023-04-05T20:15:46.870Z,58.40
2023-04-05T20:18:26.292Z,56.80
2023-04-05T20:21:03.409Z,64.60
2023-04-05T20:23:38.471Z,60.30
2023-04-05T20:26:35.644Z,59.30
2023-04-05T20:29:11.287Z,53.60
2023-04-05T20:31:57.735Z,52.40
2023-04-05T20:34:39.474Z,62.70
2023-04-05T20:37:13.950Z,64.80
2023-04-05T20:39:49.829Z,63.30
2023-04-05T20:42:26.819Z,150.80
2023-04-05T20:44:57.648Z,103.90
2023-04-05T20:47:36.885Z,120.20
2023-04-05T20:50:14.277Z,103.20
2023-04-05T20:52:50.005Z,107.00
2023-04-05T20:55:26.973Z,105.20
2023-04-05T20:57:57.025Z,107.30
2023-04-05T21:00:29.991Z,109.50
2023-04-05T21:03:00.207Z,131.40
2023-04-05T21:05:30.203Z,120.30
2023-04-05T21:08:00.289Z,125.60
2023-04-05T21:10:36.973Z,108.80
2023-04-05T21:13:14.052Z,110.20
2023-04-05T21:15:50.429Z,105.70
2023-04-05T21:18:22.531Z,107.00
2023-04-05T21:20:57.557Z,98.70
2023-04-05T21:23:32.053Z,95.20
2023-04-05T21:26:10.804Z,95.90
2023-04-05T21:28:45.206Z,92.20
2023-04-05T21:31:23.845Z,83.70
2023-04-05T21:33:55.379Z,78.30
2023-04-05T21:36:28.496Z,71.20
2023-04-05T21:39:04.322Z,73.30
2023-04-05T21:41:35.246Z,72.00
2023-04-05T21:44:13.573Z,66.20
2023-04-05T21:46:57.856Z,65.40
2023-04-05T21:49:30.795Z,62.30
2023-04-05T21:52:00.360Z,61.10
2023-04-05T21:54:29.578Z,76.80
2023-04-05T21:56:59.292Z,72.50
2023-04-05T21:59:30.793Z,77.60
2023-04-05T22:02:09.000Z,76.30
2023-04-05T22:04:41.341Z,71.90
2023-04-05T22:07:14.915Z,73.30
2023-04-05T22:09:49.749Z,89.50
2023-04-05T22:12:23.233Z,88.30
2023-04-05T22:14:59.329Z,108.60
2023-04-05T22:20:17.879Z,91.80
2023-04-05T22:22:59.149Z,96.20
2023-04-05T22:26:28.136Z,98.60
2023-04-05T22:29:04.222Z,95.20
2023-04-05T22:31:39.576Z,94.70
2023-04-05T22:34:27.831Z,100.80
2023-04-05T22:37:08.236Z,101.80
2023-04-05T22:39:49.737Z,99.50
2023-04-05T22:42:25.265Z,92.40
2023-04-05T22:48:16.153Z,100.90
2023-04-05T22:50:52.786Z,100.40
2023-04-05T22:53:28.770Z,104.40
2023-04-05T22:57:15.855Z,87.80
2023-04-05T22:59:31.986Z,98.50
2023-04-05T23:02:05.326Z,108.60
2023-04-05T23:04:41.311Z,100.70
2023-04-05T23:07:13.811Z,107.90
2023-04-05T23:09:50.387Z,97.90
2023-04-05T23:12:25.892Z,87.90
2023-04-05T23:14:59.745Z,94.10
2023-04-05T23:17:36.824Z,102.00
2023-04-05T23:20:16.335Z,96.70
2023-04-05T23:22:52.639Z,111.10
2023-04-05T23:25:35.249Z,87.80
2023-04-05T23:28:33.903Z,90.60
2023-04-05T23:31:18.023Z,74.60
2023-04-05T23:33:50.321Z,85.70
2023-04-05T23:36:22.552Z,71.00
2023-04-05T23:39:07.562Z,64.00
2023-04-05T23:44:19.580Z,68.70
2023-04-05T23:46:55.660Z,79.70
2023-04-05T23:49:28.244Z,102.20
2023-04-05T23:54:29.200Z,89.20
2023-04-05T23:57:25.010Z,97.60
